SULAYMANIYAH INTERNATIONAL AIRPORT
  • SulyAir
  • SulyAir
1 1
Arrival

ArrivalsMore >>

Departure

DeparturesMore >>

TAF

TAF ORSU 280500Z 2806/2906 06012KT 9999 FEW045 SCT080
BECMG 2809/2811 9999 SCT045 BKN080
BECMG 2818/2820 12008KT 5000 RA BKN040 BKN070=

METARs

METAR ORSU 281600Z 04015KT CAVOK 12/02 Q1022=